createdAt,value
2023-03-16T00:01:07.605Z,3.92
2023-03-16T00:03:35.059Z,4.58
2023-03-16T00:06:01.641Z,4.68
2023-03-16T00:08:28.247Z,3.93
2023-03-16T00:10:54.852Z,3.60
2023-03-16T00:13:24.187Z,4.03
2023-03-16T00:15:51.825Z,4.09
2023-03-16T00:18:18.497Z,4.61
2023-03-16T00:20:45.026Z,4.09
2023-03-16T00:23:11.902Z,4.69
2023-03-16T00:25:38.417Z,4.72
2023-03-16T00:28:04.965Z,4.12
2023-03-16T00:30:32.804Z,4.68
2023-03-16T00:32:59.645Z,4.66
2023-03-16T00:35:26.248Z,4.12
2023-03-16T00:37:57.238Z,4.61
2023-03-16T00:40:24.988Z,4.74
2023-03-16T00:42:51.564Z,4.82
2023-03-16T00:45:18.083Z,4.63
2023-03-16T00:47:44.635Z,4.85
2023-03-16T00:50:13.220Z,4.79
2023-03-16T00:52:39.760Z,4.23
2023-03-16T00:55:06.758Z,4.54
2023-03-16T00:57:33.292Z,4.72
2023-03-16T01:00:00.321Z,4.86
2023-03-16T01:02:27.156Z,4.73
2023-03-16T01:04:54.685Z,4.21
2023-03-16T01:07:21.954Z,4.75
2023-03-16T01:09:49.103Z,4.75
2023-03-16T01:12:17.940Z,4.92
2023-03-16T01:14:48.066Z,4.96
2023-03-16T01:17:16.120Z,5.01
2023-03-16T01:19:43.610Z,4.86
2023-03-16T01:22:11.589Z,4.88
2023-03-16T01:24:39.663Z,4.46
2023-03-16T01:27:07.630Z,4.93
2023-03-16T01:29:34.403Z,5.04
2023-03-16T01:32:01.969Z,5.10
2023-03-16T01:34:28.685Z,5.03
2023-03-16T01:36:56.125Z,5.14
2023-03-16T01:39:29.898Z,5.13
2023-03-16T01:41:56.489Z,4.40
2023-03-16T01:44:30.455Z,4.97
2023-03-16T01:47:00.970Z,5.08
2023-03-16T01:49:33.603Z,4.50
2023-03-16T01:52:12.545Z,4.88
2023-03-16T01:54:42.459Z,5.15
2023-03-16T01:57:19.428Z,4.67
2023-03-16T01:59:58.019Z,4.54
2023-03-16T02:02:30.948Z,5.06
2023-03-16T02:05:23.093Z,5.14
2023-03-16T02:07:52.300Z,4.67
2023-03-16T02:10:20.392Z,5.14
2023-03-16T02:12:47.232Z,5.15
2023-03-16T02:15:15.291Z,4.61
2023-03-16T02:17:44.307Z,5.17
2023-03-16T02:20:23.075Z,5.12
2023-03-16T02:22:54.962Z,5.11
2023-03-16T02:25:48.681Z,4.49
2023-03-16T02:28:24.744Z,5.10
2023-03-16T02:30:53.339Z,4.63
2023-03-16T02:33:21.385Z,5.14
2023-03-16T02:35:48.117Z,5.14
2023-03-16T02:38:14.878Z,5.03
2023-03-16T02:41:13.705Z,5.14
2023-03-16T02:43:46.612Z,4.46
2023-03-16T02:46:25.457Z,5.05
2023-03-16T02:48:55.136Z,5.05
2023-03-16T02:51:21.665Z,5.07
2023-03-16T02:53:48.293Z,5.04
2023-03-16T02:56:15.167Z,4.37
2023-03-16T02:58:41.726Z,4.46
2023-03-16T03:01:13.378Z,5.08
2023-03-16T03:03:40.112Z,5.12
2023-03-16T03:06:06.738Z,5.12
2023-03-16T03:08:35.919Z,5.13
2023-03-16T03:11:02.721Z,5.18
2023-03-16T03:13:29.370Z,5.12
2023-03-16T03:15:56.003Z,4.58
2023-03-16T03:18:25.410Z,4.61
2023-03-16T03:20:52.869Z,5.09
2023-03-16T03:23:19.478Z,5.07
2023-03-16T03:25:46.206Z,5.02
2023-03-16T03:28:14.366Z,4.53
2023-03-16T03:30:41.618Z,5.04
2023-03-16T03:33:08.317Z,4.03
2023-03-16T03:35:34.980Z,5.07
2023-03-16T03:38:01.594Z,4.99
2023-03-16T03:40:28.481Z,4.45
2023-03-16T03:43:01.599Z,4.79
2023-03-16T03:45:29.780Z,4.98
2023-03-16T03:47:56.665Z,5.04
2023-03-16T03:50:24.063Z,4.92
2023-03-16T03:52:57.995Z,4.86
2023-03-16T03:55:26.418Z,4.70
2023-03-16T03:57:52.956Z,5.02
2023-03-16T04:00:21.935Z,4.94
2023-03-16T04:02:49.249Z,4.94
2023-03-16T04:05:27.527Z,4.91
2023-03-16T04:07:57.624Z,4.77
2023-03-16T04:10:26.855Z,4.87
2023-03-16T04:12:53.927Z,4.89
2023-03-16T04:15:22.186Z,4.85
2023-03-16T04:18:05.987Z,4.76
2023-03-16T04:20:32.687Z,4.73
2023-03-16T04:23:00.102Z,4.78
2023-03-16T04:25:27.568Z,4.79
2023-03-16T04:27:54.356Z,4.82
2023-03-16T04:30:23.900Z,4.78
2023-03-16T04:32:54.517Z,4.18
2023-03-16T04:35:22.281Z,4.77
2023-03-16T04:37:53.046Z,4.69
2023-03-16T04:40:24.467Z,4.19
2023-03-16T04:42:59.632Z,4.79
2023-03-16T04:45:26.701Z,4.23
2023-03-16T04:47:56.579Z,4.38
2023-03-16T04:50:23.252Z,4.24
2023-03-16T04:52:52.875Z,4.90
2023-03-16T04:55:20.649Z,4.94
2023-03-16T04:57:47.261Z,4.95
2023-03-16T05:00:21.015Z,4.85
2023-03-16T05:03:10.287Z,4.97
2023-03-16T05:05:40.908Z,4.44
2023-03-16T05:08:08.169Z,5.01
2023-03-16T05:10:36.941Z,4.95
2023-03-16T05:13:04.548Z,5.04
2023-03-16T05:15:31.541Z,4.61
2023-03-16T05:18:15.565Z,4.98
2023-03-16T05:20:42.248Z,4.86
2023-03-16T05:23:09.232Z,4.53
2023-03-16T05:25:43.405Z,4.59
2023-03-16T05:28:11.377Z,4.60
2023-03-16T05:30:54.152Z,5.19
2023-03-16T05:33:25.558Z,5.17
2023-03-16T05:35:58.462Z,5.13
2023-03-16T05:38:27.474Z,5.08
2023-03-16T05:40:55.292Z,5.17
2023-03-16T05:43:40.325Z,4.96
2023-03-16T05:46:06.971Z,4.65
2023-03-16T05:48:35.783Z,4.63
2023-03-16T05:51:05.944Z,5.26
2023-03-16T05:53:35.483Z,4.96
2023-03-16T05:56:12.663Z,5.25
2023-03-16T05:58:42.366Z,4.82
2023-03-16T06:01:11.231Z,5.30
2023-03-16T06:03:37.823Z,5.40
2023-03-16T06:06:06.421Z,5.20
2023-03-16T06:08:41.526Z,5.35
2023-03-16T06:11:11.788Z,5.33
2023-03-16T06:13:39.487Z,5.43
2023-03-16T06:16:07.234Z,5.46
2023-03-16T06:18:35.476Z,5.54
2023-03-16T06:21:03.940Z,5.45
2023-03-16T06:23:31.828Z,5.60
2023-03-16T06:25:59.563Z,5.38
2023-03-16T06:28:28.430Z,5.66
2023-03-16T06:30:56.797Z,5.15
2023-03-16T06:33:28.056Z,5.48
2023-03-16T06:35:54.783Z,5.69
2023-03-16T06:38:29.816Z,5.55
2023-03-16T06:41:16.583Z,5.60
2023-03-16T06:43:45.622Z,5.69
2023-03-16T06:46:12.577Z,5.73
2023-03-16T06:48:39.577Z,5.67
2023-03-16T06:51:07.613Z,5.12
2023-03-16T06:53:35.248Z,5.04
2023-03-16T06:56:01.836Z,5.20
2023-03-16T06:58:31.578Z,5.84
2023-03-16T07:01:04.646Z,5.72
2023-03-16T07:03:31.506Z,5.23
2023-03-16T07:06:04.174Z,5.79
2023-03-16T07:08:31.206Z,5.73
2023-03-16T07:10:57.880Z,5.62
2023-03-16T07:13:24.348Z,5.70
2023-03-16T07:15:52.184Z,5.02
2023-03-16T07:18:20.960Z,4.91
2023-03-16T07:20:47.607Z,5.64
2023-03-16T07:23:15.181Z,5.54
2023-03-16T07:25:44.552Z,5.60
2023-03-16T07:28:11.712Z,5.04
2023-03-16T07:30:45.901Z,5.09
2023-03-16T07:33:20.770Z,5.55
2023-03-16T07:35:47.356Z,5.68
2023-03-16T07:38:13.916Z,5.06
2023-03-16T07:40:40.808Z,5.29
2023-03-16T07:43:13.786Z,5.85
2023-03-16T07:45:50.137Z,6.02
2023-03-16T07:48:19.397Z,5.94
2023-03-16T07:50:54.445Z,6.22
2023-03-16T07:53:22.693Z,6.26
2023-03-16T07:55:54.249Z,6.07
2023-03-16T07:58:21.606Z,6.31
2023-03-16T08:00:49.446Z,6.31
2023-03-16T08:03:16.115Z,6.33
2023-03-16T08:05:44.686Z,5.71
2023-03-16T08:08:15.950Z,6.26
2023-03-16T08:10:42.844Z,6.27
2023-03-16T08:13:13.937Z,6.38
2023-03-16T08:15:46.584Z,5.88
2023-03-16T08:18:21.408Z,6.35
2023-03-16T08:20:48.043Z,6.27
2023-03-16T08:23:15.508Z,5.68
2023-03-16T08:25:42.360Z,6.23
2023-03-16T08:28:15.704Z,6.36
2023-03-16T08:30:48.021Z,5.90
2023-03-16T08:33:25.902Z,6.56
2023-03-16T08:35:52.798Z,6.66
2023-03-16T08:38:20.148Z,6.65
2023-03-16T08:40:50.323Z,6.36
2023-03-16T08:43:19.246Z,6.76
2023-03-16T08:45:47.405Z,6.87
2023-03-16T08:48:15.555Z,6.77
2023-03-16T08:50:45.170Z,7.40
2023-03-16T08:53:13.720Z,7.38
2023-03-16T08:55:45.070Z,7.35
2023-03-16T08:58:12.316Z,7.03
2023-03-16T09:00:39.878Z,7.76
2023-03-16T09:03:07.140Z,7.79
2023-03-16T09:05:34.801Z,7.42
2023-03-16T09:08:01.793Z,7.96
2023-03-16T09:10:48.394Z,7.54
2023-03-16T09:13:16.241Z,8.03
2023-03-16T09:15:45.985Z,7.72
2023-03-16T09:18:13.617Z,8.12
2023-03-16T09:20:40.487Z,8.33
2023-03-16T09:23:07.327Z,8.34
2023-03-16T09:25:33.996Z,7.74
2023-03-16T09:28:00.959Z,8.11
2023-03-16T09:30:28.313Z,7.68
2023-03-16T09:32:55.231Z,8.30
2023-03-16T09:35:22.149Z,7.91
2023-03-16T09:38:05.280Z,7.84
2023-03-16T09:40:33.369Z,8.26
2023-03-16T09:43:05.661Z,8.50
2023-03-16T09:45:41.489Z,8.57
2023-03-16T09:48:10.916Z,8.74
2023-03-16T09:50:48.866Z,8.93
2023-03-16T09:53:30.808Z,9.06
2023-03-16T09:56:12.418Z,8.86
2023-03-16T09:58:39.320Z,9.46
2023-03-16T10:01:36.022Z,9.23
2023-03-16T10:04:15.229Z,9.63
2023-03-16T10:07:19.493Z,9.75
2023-03-16T10:09:57.764Z,9.95
2023-03-16T10:12:35.075Z,9.94
2023-03-16T10:15:13.860Z,10.30
2023-03-16T10:17:47.557Z,10.33
2023-03-16T10:20:17.609Z,10.27
2023-03-16T10:22:46.816Z,10.75
2023-03-16T10:25:19.342Z,11.26
2023-03-16T10:27:47.055Z,11.45
2023-03-16T10:30:36.190Z,11.76
2023-03-16T10:33:27.450Z,12.63
2023-03-16T10:36:12.237Z,13.30
2023-03-16T10:38:46.849Z,14.12
2023-03-16T10:41:20.204Z,14.11
2023-03-16T10:43:59.704Z,14.94
2023-03-16T10:46:28.086Z,15.02
2023-03-16T10:49:01.160Z,15.22
2023-03-16T10:51:31.124Z,15.44
2023-03-16T10:54:06.988Z,15.44
2023-03-16T10:56:37.371Z,15.92
2023-03-16T10:59:15.250Z,15.51
2023-03-16T11:01:45.292Z,15.05
2023-03-16T11:04:16.653Z,15.00
2023-03-16T11:06:55.085Z,15.25
2023-03-16T11:09:33.150Z,15.27
2023-03-16T11:12:14.202Z,15.43
2023-03-16T11:14:49.018Z,15.71
2023-03-16T11:17:21.278Z,16.55
2023-03-16T11:19:54.382Z,16.18
2023-03-16T11:22:26.054Z,16.14
2023-03-16T11:24:55.452Z,16.45
2023-03-16T11:27:26.331Z,16.15
2023-03-16T11:30:16.606Z,15.60
2023-03-16T11:32:48.869Z,14.77
2023-03-16T11:35:19.608Z,14.30
2023-03-16T11:38:12.436Z,13.56
2023-03-16T11:41:01.536Z,13.12
2023-03-16T11:43:44.875Z,13.41
2023-03-16T11:46:17.208Z,13.22
2023-03-16T11:48:59.946Z,13.39
2023-03-16T11:51:51.677Z,13.62
2023-03-16T11:54:50.273Z,13.80
2023-03-16T11:57:32.782Z,13.36
2023-03-16T12:00:13.440Z,13.77
2023-03-16T12:02:46.061Z,13.78
2023-03-16T12:05:37.989Z,13.67
2023-03-16T12:08:20.081Z,13.72
2023-03-16T12:11:16.366Z,13.77
2023-03-16T12:14:08.937Z,13.94
2023-03-16T12:16:49.414Z,13.93
2023-03-16T12:19:43.558Z,14.87
2023-03-16T12:22:29.535Z,14.86
2023-03-16T12:24:56.263Z,14.79
2023-03-16T12:27:30.148Z,15.67
2023-03-16T12:30:08.682Z,15.86
2023-03-16T12:33:01.213Z,16.21
2023-03-16T12:35:45.167Z,16.27
2023-03-16T12:38:31.882Z,17.13
2023-03-16T12:41:11.879Z,17.76
2023-03-16T12:43:38.491Z,18.85
2023-03-16T12:46:14.035Z,19.22
2023-03-16T12:48:49.020Z,19.22
2023-03-16T12:51:15.856Z,19.35
2023-03-16T12:53:53.211Z,19.03
2023-03-16T12:56:28.214Z,19.58
2023-03-16T12:58:57.582Z,19.04
2023-03-16T13:01:38.226Z,19.45
2023-03-16T13:04:15.977Z,19.41
2023-03-16T13:06:47.440Z,19.65
2023-03-16T13:09:19.206Z,20.42
2023-03-16T13:11:50.372Z,20.43
2023-03-16T13:14:44.264Z,20.15
2023-03-16T13:17:16.816Z,20.42
2023-03-16T13:19:46.580Z,20.80
2023-03-16T13:22:27.892Z,20.86
2023-03-16T13:25:25.479Z,20.52
2023-03-16T13:27:55.838Z,19.89
2023-03-16T13:30:28.650Z,19.07
2023-03-16T13:33:00.030Z,18.74
2023-03-16T13:35:30.262Z,18.40
2023-03-16T13:38:05.704Z,18.17
2023-03-16T13:40:32.921Z,18.33
2023-03-16T13:43:01.758Z,18.01
2023-03-16T13:45:32.972Z,17.43
2023-03-16T13:48:02.077Z,17.68
2023-03-16T13:50:33.414Z,17.62
2023-03-16T13:53:04.414Z,18.13
2023-03-16T13:55:36.504Z,18.61
2023-03-16T13:58:04.456Z,19.78
2023-03-16T14:00:36.983Z,20.45
2023-03-16T14:03:09.120Z,20.33
2023-03-16T14:05:36.329Z,21.01
2023-03-16T14:08:04.942Z,21.19
2023-03-16T14:10:35.323Z,20.76
2023-03-16T14:13:25.517Z,20.70
2023-03-16T14:16:04.431Z,19.80
2023-03-16T14:18:34.568Z,19.68
2023-03-16T14:21:07.949Z,19.23
2023-03-16T14:23:39.200Z,20.11
2023-03-16T14:26:12.607Z,20.20
2023-03-16T14:28:39.535Z,20.58
2023-03-16T14:31:11.942Z,21.58
2023-03-16T14:33:42.580Z,22.18
2023-03-16T14:36:13.174Z,21.77
2023-03-16T14:38:41.751Z,20.54
2023-03-16T14:41:09.500Z,21.04
2023-03-16T14:43:41.142Z,21.54
2023-03-16T14:46:08.488Z,21.63
2023-03-16T14:48:35.788Z,21.95
2023-03-16T14:51:04.232Z,21.82
2023-03-16T14:53:31.715Z,21.40
2023-03-16T14:55:59.331Z,21.66
2023-03-16T14:58:26.111Z,21.74
2023-03-16T15:00:54.241Z,21.28
2023-03-16T15:03:33.062Z,20.98
2023-03-16T15:06:01.292Z,21.60
2023-03-16T15:08:33.689Z,21.22
2023-03-16T15:11:05.745Z,21.18
2023-03-16T15:13:39.675Z,20.78
2023-03-16T15:16:09.960Z,19.96
2023-03-16T15:18:39.194Z,19.17
2023-03-16T15:21:12.764Z,19.34
2023-03-16T15:23:41.568Z,18.90
2023-03-16T15:26:11.981Z,19.02
2023-03-16T15:28:38.797Z,18.23
2023-03-16T15:31:06.212Z,18.34
2023-03-16T15:33:33.440Z,17.83
2023-03-16T15:36:02.684Z,17.11
2023-03-16T15:38:33.425Z,16.64
2023-03-16T15:41:00.377Z,16.86
2023-03-16T15:43:29.182Z,17.73
2023-03-16T15:45:57.386Z,18.23
2023-03-16T15:48:27.092Z,18.00
2023-03-16T15:51:01.823Z,17.70
2023-03-16T15:53:35.606Z,18.02
2023-03-16T15:56:05.501Z,19.03
2023-03-16T15:58:34.989Z,19.71
2023-03-16T16:01:03.233Z,19.81
2023-03-16T16:03:30.766Z,20.16
2023-03-16T16:05:57.526Z,19.71
2023-03-16T16:08:24.143Z,19.16
2023-03-16T16:10:53.154Z,18.32
2023-03-16T16:13:26.768Z,17.09
2023-03-16T16:15:58.780Z,16.88
2023-03-16T16:18:35.384Z,16.26
2023-03-16T16:21:05.045Z,16.12
2023-03-16T16:23:32.517Z,15.87
2023-03-16T16:26:07.193Z,16.09
2023-03-16T16:28:34.941Z,15.80
2023-03-16T16:31:01.916Z,16.59
2023-03-16T16:33:30.944Z,16.46
2023-03-16T16:36:00.156Z,16.32
2023-03-16T16:38:28.049Z,16.79
2023-03-16T16:40:58.401Z,16.58
2023-03-16T16:43:38.803Z,17.15
2023-03-16T16:46:12.257Z,15.84
2023-03-16T16:48:49.339Z,15.73
2023-03-16T16:51:24.687Z,15.28
2023-03-16T16:53:54.297Z,15.80
2023-03-16T16:56:27.488Z,15.82
2023-03-16T16:58:55.409Z,15.82
2023-03-16T17:01:27.248Z,14.89
2023-03-16T17:03:53.901Z,14.72
2023-03-16T17:06:21.003Z,14.38
2023-03-16T17:08:47.942Z,13.29
2023-03-16T17:11:23.233Z,13.36
2023-03-16T17:13:52.621Z,13.26
2023-03-16T17:16:28.576Z,12.83
2023-03-16T17:18:55.464Z,12.69
2023-03-16T17:21:25.125Z,12.06
2023-03-16T17:23:55.024Z,12.27
2023-03-16T17:26:21.761Z,12.19
2023-03-16T17:28:52.929Z,11.84
2023-03-16T17:31:24.697Z,11.69
2023-03-16T17:33:53.235Z,11.47
2023-03-16T17:36:21.136Z,11.34
2023-03-16T17:38:48.325Z,10.86
2023-03-16T17:41:26.949Z,11.00
2023-03-16T17:43:56.865Z,10.92
2023-03-16T17:46:26.433Z,10.34
2023-03-16T17:48:55.468Z,10.17
2023-03-16T17:51:25.462Z,10.11
2023-03-16T17:53:52.191Z,10.25
2023-03-16T17:56:24.424Z,9.98
2023-03-16T17:58:53.906Z,10.20
2023-03-16T18:01:26.481Z,9.98
2023-03-16T18:03:53.030Z,10.15
2023-03-16T18:06:23.881Z,9.60
2023-03-16T18:08:50.442Z,9.36
2023-03-16T18:11:22.799Z,9.26
2023-03-16T18:13:50.989Z,9.11
2023-03-16T18:16:23.136Z,9.49
2023-03-16T18:18:51.846Z,8.69
2023-03-16T18:21:21.779Z,9.67
2023-03-16T18:23:49.359Z,9.08
2023-03-16T18:26:16.352Z,9.02
2023-03-16T18:28:43.815Z,8.96
2023-03-16T18:31:21.346Z,8.98
2023-03-16T18:33:51.125Z,9.50
2023-03-16T18:36:29.419Z,9.38
2023-03-16T18:38:58.169Z,8.47
2023-03-16T18:41:28.058Z,9.10
2023-03-16T18:43:58.248Z,9.38
2023-03-16T18:46:29.862Z,9.35
2023-03-16T18:48:58.962Z,8.65
2023-03-16T18:51:26.539Z,8.67
2023-03-16T18:53:54.082Z,8.63
2023-03-16T18:56:21.264Z,9.12
2023-03-16T18:58:49.334Z,8.39
2023-03-16T19:01:28.778Z,8.72
2023-03-16T19:03:57.712Z,8.25
2023-03-16T19:06:31.465Z,8.10
2023-03-16T19:09:26.951Z,8.27
2023-03-16T19:11:53.628Z,8.73
2023-03-16T19:14:22.518Z,8.94
2023-03-16T19:16:49.426Z,8.24
2023-03-16T19:19:16.966Z,8.89
2023-03-16T19:21:43.700Z,8.35
2023-03-16T19:24:22.741Z,8.44
2023-03-16T19:26:49.425Z,8.58
2023-03-16T19:29:16.158Z,8.45
2023-03-16T19:31:42.881Z,9.18
2023-03-16T19:34:17.146Z,9.13
2023-03-16T19:36:44.203Z,8.64
2023-03-16T19:39:16.235Z,8.65
2023-03-16T19:41:44.853Z,9.12
2023-03-16T19:44:20.487Z,9.41
2023-03-16T19:46:47.831Z,9.38
2023-03-16T19:49:23.350Z,9.34
2023-03-16T19:51:52.192Z,9.43
2023-03-16T19:54:24.058Z,9.10
2023-03-16T19:56:52.432Z,9.33
2023-03-16T19:59:20.067Z,9.07
2023-03-16T20:01:47.081Z,9.13
2023-03-16T20:04:26.081Z,9.21
2023-03-16T20:06:53.898Z,8.89
2023-03-16T20:09:20.898Z,9.01
2023-03-16T20:11:48.492Z,8.48
2023-03-16T20:14:20.786Z,8.99
2023-03-16T20:16:48.200Z,8.40
2023-03-16T20:19:15.808Z,8.99
2023-03-16T20:21:42.683Z,8.35
2023-03-16T20:24:17.534Z,8.40
2023-03-16T20:26:45.622Z,8.26
2023-03-16T20:29:31.091Z,7.34
2023-03-16T20:31:58.109Z,8.18
2023-03-16T20:34:28.364Z,8.35
2023-03-16T20:36:55.919Z,8.71
2023-03-16T20:39:22.657Z,8.76
2023-03-16T20:41:49.738Z,8.92
2023-03-16T20:44:19.149Z,9.12
2023-03-16T20:46:46.043Z,8.40
2023-03-16T20:49:29.828Z,8.47
2023-03-16T20:51:56.608Z,8.94
2023-03-16T20:54:23.220Z,9.03
2023-03-16T20:56:49.867Z,9.04
2023-03-16T20:59:20.074Z,8.77
2023-03-16T21:01:47.926Z,8.81
2023-03-16T21:04:22.384Z,8.43
2023-03-16T21:06:50.847Z,8.81
2023-03-16T21:09:19.328Z,8.21
2023-03-16T21:11:46.560Z,8.24
2023-03-16T21:14:19.943Z,8.86
2023-03-16T21:16:47.492Z,8.64
2023-03-16T21:19:17.769Z,8.25
2023-03-16T21:21:44.742Z,8.62
2023-03-16T21:24:11.706Z,8.15
2023-03-16T21:26:40.084Z,7.81
2023-03-16T21:29:11.329Z,8.75
2023-03-16T21:31:38.085Z,8.11
2023-03-16T21:34:05.629Z,8.63
2023-03-16T21:36:32.195Z,8.60
2023-03-16T21:38:58.732Z,8.62
2023-03-16T21:41:25.620Z,8.65
2023-03-16T21:43:54.392Z,8.07
2023-03-16T21:46:23.796Z,8.51
2023-03-16T21:48:54.615Z,8.34
2023-03-16T21:51:31.218Z,8.54
2023-03-16T21:53:58.108Z,8.35
2023-03-16T21:56:26.153Z,8.48
2023-03-16T21:58:54.138Z,8.46
2023-03-16T22:01:30.209Z,8.31
2023-03-16T22:04:01.702Z,8.61
2023-03-16T22:06:28.697Z,8.36
2023-03-16T22:08:56.452Z,8.51
2023-03-16T22:11:28.078Z,8.43
2023-03-16T22:13:56.605Z,7.93
2023-03-16T22:16:25.921Z,7.88
2023-03-16T22:18:56.509Z,7.78
2023-03-16T22:21:41.096Z,8.44
2023-03-16T22:24:15.764Z,7.92
2023-03-16T22:26:42.562Z,8.31
2023-03-16T22:29:18.634Z,7.84
2023-03-16T22:31:46.903Z,8.39
2023-03-16T22:34:33.409Z,8.27
2023-03-16T22:37:01.601Z,8.32
2023-03-16T22:39:36.138Z,7.41
2023-03-16T22:42:03.679Z,7.82
2023-03-16T22:44:30.313Z,8.04
2023-03-16T22:46:56.811Z,7.69
2023-03-16T22:49:27.891Z,7.76
2023-03-16T22:51:57.275Z,8.22
2023-03-16T22:54:28.353Z,7.56
2023-03-16T22:56:55.048Z,8.02
2023-03-16T22:59:24.990Z,8.22
2023-03-16T23:01:51.756Z,7.88
2023-03-16T23:04:24.630Z,7.82
2023-03-16T23:06:53.348Z,8.32
2023-03-16T23:09:21.767Z,8.48
2023-03-16T23:11:53.586Z,8.04
2023-03-16T23:14:27.143Z,8.11
2023-03-16T23:16:54.020Z,8.45
2023-03-16T23:19:30.638Z,8.50
2023-03-16T23:22:06.091Z,8.61
2023-03-16T23:24:33.435Z,8.31
2023-03-16T23:27:00.296Z,8.16
2023-03-16T23:29:27.598Z,8.64
2023-03-16T23:31:54.663Z,8.11
2023-03-16T23:34:24.800Z,8.02
2023-03-16T23:36:51.806Z,8.40
2023-03-16T23:39:18.559Z,8.20
2023-03-16T23:41:47.865Z,8.56
2023-03-16T23:44:21.873Z,8.54
2023-03-16T23:46:48.809Z,7.96
2023-03-16T23:49:22.312Z,8.54
2023-03-16T23:51:49.462Z,8.49
2023-03-16T23:54:25.345Z,7.99
2023-03-16T23:56:52.403Z,8.02
2023-03-16T23:59:20.845Z,8.51
